sensor_id;sensor_type;location;lat;lon;timestamp;temperature;humidity
9849;DHT22;4963;51.444;6.528;2022-08-19T00:01:45;20.70;99.90
9849;DHT22;4963;51.444;6.528;2022-08-19T00:04:14;20.70;99.90
9849;DHT22;4963;51.444;6.528;2022-08-19T00:06:44;20.60;99.90
9849;DHT22;4963;51.444;6.528;2022-08-19T00:09:14;20.60;99.90
9849;DHT22;4963;51.444;6.528;2022-08-19T00:11:42;20.50;99.90
9849;DHT22;4963;51.444;6.528;2022-08-19T00:14:14;20.50;99.90
9849;DHT22;4963;51.444;6.528;2022-08-19T00:16:43;20.50;99.90
9849;DHT22;4963;51.444;6.528;2022-08-19T00:19:12;20.50;99.90
9849;DHT22;4963;51.444;6.528;2022-08-19T00:21:38;20.50;99.90
9849;DHT22;4963;51.444;6.528;2022-08-19T00:24:08;20.50;99.90
9849;DHT22;4963;51.444;6.528;2022-08-19T00:26:36;20.50;99.90
9849;DHT22;4963;51.444;6.528;2022-08-19T00:29:04;20.50;99.90
9849;DHT22;4963;51.444;6.528;2022-08-19T00:31:32;20.40;99.90
9849;DHT22;4963;51.444;6.528;2022-08-19T00:33:59;20.40;99.90
9849;DHT22;4963;51.444;6.528;2022-08-19T00:36:26;20.40;99.90
9849;DHT22;4963;51.444;6.528;2022-08-19T00:38:54;20.50;99.90
9849;DHT22;4963;51.444;6.528;2022-08-19T00:41:24;20.50;99.90
9849;DHT22;4963;51.444;6.528;2022-08-19T00:44:02;20.50;99.90
9849;DHT22;4963;51.444;6.528;2022-08-19T00:46:30;20.50;99.90
9849;DHT22;4963;51.444;6.528;2022-08-19T00:48:59;20.50;99.90
9849;DHT22;4963;51.444;6.528;2022-08-19T00:51:27;20.50;99.90
9849;DHT22;4963;51.444;6.528;2022-08-19T00:53:58;20.50;99.90
9849;DHT22;4963;51.444;6.528;2022-08-19T00:56:29;20.40;99.90
9849;DHT22;4963;51.444;6.528;2022-08-19T00:58:58;20.40;99.90
9849;DHT22;4963;51.444;6.528;2022-08-19T01:01:25;20.30;99.90
9849;DHT22;4963;51.444;6.528;2022-08-19T01:03:52;20.30;99.90
9849;DHT22;4963;51.444;6.528;2022-08-19T01:06:19;20.20;99.90
9849;DHT22;4963;51.444;6.528;2022-08-19T01:08:46;20.20;99.90
9849;DHT22;4963;51.444;6.528;2022-08-19T01:11:13;20.10;99.90
9849;DHT22;4963;51.444;6.528;2022-08-19T01:13:42;20.20;99.90
9849;DHT22;4963;51.444;6.528;2022-08-19T01:16:10;20.20;99.90
9849;DHT22;4963;51.444;6.528;2022-08-19T01:18:39;20.10;99.90
9849;DHT22;4963;51.444;6.528;2022-08-19T01:21:11;20.20;99.90
9849;DHT22;4963;51.444;6.528;2022-08-19T01:23:43;20.10;99.90
9849;DHT22;4963;51.444;6.528;2022-08-19T01:26:12;20.00;99.90
9849;DHT22;4963;51.444;6.528;2022-08-19T01:28:41;19.90;99.90
9849;DHT22;4963;51.444;6.528;2022-08-19T01:31:12;20.00;99.90
9849;DHT22;4963;51.444;6.528;2022-08-19T01:33:39;20.00;99.90
9849;DHT22;4963;51.444;6.528;2022-08-19T01:36:08;20.00;99.90
9849;DHT22;4963;51.444;6.528;2022-08-19T01:38:38;19.90;99.90
9849;DHT22;4963;51.444;6.528;2022-08-19T01:41:06;19.90;99.90
9849;DHT22;4963;51.444;6.528;2022-08-19T01:43:33;19.90;99.90
9849;DHT22;4963;51.444;6.528;2022-08-19T01:46:00;19.80;99.90
9849;DHT22;4963;51.444;6.528;2022-08-19T01:48:33;19.70;99.90
9849;DHT22;4963;51.444;6.528;2022-08-19T01:51:00;19.80;99.90
9849;DHT22;4963;51.444;6.528;2022-08-19T01:53:27;19.70;99.90
9849;DHT22;4963;51.444;6.528;2022-08-19T01:55:54;19.70;99.90
9849;DHT22;4963;51.444;6.528;2022-08-19T01:58:26;19.70;99.90
9849;DHT22;4963;51.444;6.528;2022-08-19T02:00:54;19.60;99.90
9849;DHT22;4963;51.444;6.528;2022-08-19T02:03:21;19.70;99.90
9849;DHT22;4963;51.444;6.528;2022-08-19T02:05:55;19.70;99.90
9849;DHT22;4963;51.444;6.528;2022-08-19T02:08:22;19.70;99.90
9849;DHT22;4963;51.444;6.528;2022-08-19T02:10:49;19.70;99.90
9849;DHT22;4963;51.444;6.528;2022-08-19T02:13:16;19.70;99.90
9849;DHT22;4963;51.444;6.528;2022-08-19T02:15:44;19.70;99.90
9849;DHT22;4963;51.444;6.528;2022-08-19T02:18:11;19.70;99.90
9849;DHT22;4963;51.444;6.528;2022-08-19T02:20:40;19.60;99.90
9849;DHT22;4963;51.444;6.528;2022-08-19T02:23:07;19.60;99.90
9849;DHT22;4963;51.444;6.528;2022-08-19T02:25:35;19.50;99.90
9849;DHT22;4963;51.444;6.528;2022-08-19T02:28:02;19.50;99.90
9849;DHT22;4963;51.444;6.528;2022-08-19T02:30:29;19.50;99.90
9849;DHT22;4963;51.444;6.528;2022-08-19T02:32:57;19.40;99.90
9849;DHT22;4963;51.444;6.528;2022-08-19T02:35:25;19.40;99.90
9849;DHT22;4963;51.444;6.528;2022-08-19T02:37:52;19.40;99.90
9849;DHT22;4963;51.444;6.528;2022-08-19T02:40:36;19.40;99.90
9849;DHT22;4963;51.444;6.528;2022-08-19T02:43:05;19.40;99.90
9849;DHT22;4963;51.444;6.528;2022-08-19T02:45:33;19.40;99.90
9849;DHT22;4963;51.444;6.528;2022-08-19T02:48:01;19.40;99.90
9849;DHT22;4963;51.444;6.528;2022-08-19T02:50:28;19.30;99.90
9849;DHT22;4963;51.444;6.528;2022-08-19T02:52:55;19.40;99.90
9849;DHT22;4963;51.444;6.528;2022-08-19T02:55:22;19.40;99.90
9849;DHT22;4963;51.444;6.528;2022-08-19T02:57:49;19.40;99.90
9849;DHT22;4963;51.444;6.528;2022-08-19T03:00:16;19.40;99.90
9849;DHT22;4963;51.444;6.528;2022-08-19T03:02:43;19.40;99.90
9849;DHT22;4963;51.444;6.528;2022-08-19T03:05:13;19.40;99.90
9849;DHT22;4963;51.444;6.528;2022-08-19T03:07:40;19.30;99.90
9849;DHT22;4963;51.444;6.528;2022-08-19T03:10:07;19.30;99.90
9849;DHT22;4963;51.444;6.528;2022-08-19T03:12:36;19.30;99.90
9849;DHT22;4963;51.444;6.528;2022-08-19T03:15:04;19.20;99.90
9849;DHT22;4963;51.444;6.528;2022-08-19T03:17:32;19.20;99.90
9849;DHT22;4963;51.444;6.528;2022-08-19T03:20:00;19.20;99.90
9849;DHT22;4963;51.444;6.528;2022-08-19T03:22:28;19.20;99.90
9849;DHT22;4963;51.444;6.528;2022-08-19T03:24:55;19.20;99.90
9849;DHT22;4963;51.444;6.528;2022-08-19T03:27:22;19.20;99.90
9849;DHT22;4963;51.444;6.528;2022-08-19T03:29:49;19.30;99.90
9849;DHT22;4963;51.444;6.528;2022-08-19T03:32:17;19.40;99.90
9849;DHT22;4963;51.444;6.528;2022-08-19T03:34:44;19.40;99.90
9849;DHT22;4963;51.444;6.528;2022-08-19T03:37:11;19.40;99.90
9849;DHT22;4963;51.444;6.528;2022-08-19T03:39:40;19.50;99.90
9849;DHT22;4963;51.444;6.528;2022-08-19T03:42:08;19.50;99.90
9849;DHT22;4963;51.444;6.528;2022-08-19T03:44:35;19.50;99.90
9849;DHT22;4963;51.444;6.528;2022-08-19T03:47:03;19.40;99.90
9849;DHT22;4963;51.444;6.528;2022-08-19T03:49:32;19.50;99.90
9849;DHT22;4963;51.444;6.528;2022-08-19T03:52:01;19.40;99.90
9849;DHT22;4963;51.444;6.528;2022-08-19T03:54:28;19.40;99.90
9849;DHT22;4963;51.444;6.528;2022-08-19T03:56:57;19.30;99.90
9849;DHT22;4963;51.444;6.528;2022-08-19T03:59:26;19.30;99.90
9849;DHT22;4963;51.444;6.528;2022-08-19T04:01:54;19.30;99.90
9849;DHT22;4963;51.444;6.528;2022-08-19T04:04:21;19.30;99.90
9849;DHT22;4963;51.444;6.528;2022-08-19T04:06:48;19.30;99.90
9849;DHT22;4963;51.444;6.528;2022-08-19T04:09:16;19.20;99.90
9849;DHT22;4963;51.444;6.528;2022-08-19T04:11:46;19.10;99.90
9849;DHT22;4963;51.444;6.528;2022-08-19T04:14:18;19.00;99.90
9849;DHT22;4963;51.444;6.528;2022-08-19T04:16:46;19.00;99.90
9849;DHT22;4963;51.444;6.528;2022-08-19T04:19:14;18.90;99.90
9849;DHT22;4963;51.444;6.528;2022-08-19T04:21:43;18.90;99.90
9849;DHT22;4963;51.444;6.528;2022-08-19T04:24:11;18.90;99.90
9849;DHT22;4963;51.444;6.528;2022-08-19T04:26:38;19.00;99.90
9849;DHT22;4963;51.444;6.528;2022-08-19T04:29:07;19.00;99.90
9849;DHT22;4963;51.444;6.528;2022-08-19T04:31:36;19.00;99.90
9849;DHT22;4963;51.444;6.528;2022-08-19T04:34:05;19.00;99.90
9849;DHT22;4963;51.444;6.528;2022-08-19T04:36:35;19.00;99.90
9849;DHT22;4963;51.444;6.528;2022-08-19T04:39:04;19.00;99.90
9849;DHT22;4963;51.444;6.528;2022-08-19T04:41:33;19.00;99.90
9849;DHT22;4963;51.444;6.528;2022-08-19T04:44:17;19.10;99.90
9849;DHT22;4963;51.444;6.528;2022-08-19T04:46:46;19.10;99.90
9849;DHT22;4963;51.444;6.528;2022-08-19T04:49:14;19.00;99.90
9849;DHT22;4963;51.444;6.528;2022-08-19T04:51:43;19.00;99.90
9849;DHT22;4963;51.444;6.528;2022-08-19T04:54:11;19.00;99.90
9849;DHT22;4963;51.444;6.528;2022-08-19T04:56:39;19.10;99.90
9849;DHT22;4963;51.444;6.528;2022-08-19T04:59:07;19.10;99.90
9849;DHT22;4963;51.444;6.528;2022-08-19T05:01:34;19.10;99.90
9849;DHT22;4963;51.444;6.528;2022-08-19T05:04:04;19.10;99.90
9849;DHT22;4963;51.444;6.528;2022-08-19T05:06:32;19.10;99.90
9849;DHT22;4963;51.444;6.528;2022-08-19T05:09:00;19.10;99.90
9849;DHT22;4963;51.444;6.528;2022-08-19T05:11:29;19.10;99.90
9849;DHT22;4963;51.444;6.528;2022-08-19T05:13:56;19.20;99.90
9849;DHT22;4963;51.444;6.528;2022-08-19T05:16:25;19.30;99.90
9849;DHT22;4963;51.444;6.528;2022-08-19T05:18:52;19.40;99.90
9849;DHT22;4963;51.444;6.528;2022-08-19T05:21:39;19.60;99.90
9849;DHT22;4963;51.444;6.528;2022-08-19T05:24:36;19.70;99.90
9849;DHT22;4963;51.444;6.528;2022-08-19T05:27:03;19.90;99.90
9849;DHT22;4963;51.444;6.528;2022-08-19T05:29:32;20.00;99.90
9849;DHT22;4963;51.444;6.528;2022-08-19T05:32:01;20.20;99.90
9849;DHT22;4963;51.444;6.528;2022-08-19T05:34:28;20.40;99.90
9849;DHT22;4963;51.444;6.528;2022-08-19T05:37:01;20.50;99.90
9849;DHT22;4963;51.444;6.528;2022-08-19T05:39:31;20.70;99.90
9849;DHT22;4963;51.444;6.528;2022-08-19T05:42:00;20.90;99.90
9849;DHT22;4963;51.444;6.528;2022-08-19T05:44:28;21.00;99.90
9849;DHT22;4963;51.444;6.528;2022-08-19T05:46:57;21.10;99.90
9849;DHT22;4963;51.444;6.528;2022-08-19T05:49:25;21.20;99.90
9849;DHT22;4963;51.444;6.528;2022-08-19T05:51:53;21.40;99.90
9849;DHT22;4963;51.444;6.528;2022-08-19T05:54:23;21.50;99.90
9849;DHT22;4963;51.444;6.528;2022-08-19T05:56:50;21.70;99.90
9849;DHT22;4963;51.444;6.528;2022-08-19T05:59:19;21.80;99.90
9849;DHT22;4963;51.444;6.528;2022-08-19T06:01:48;22.00;99.90
9849;DHT22;4963;51.444;6.528;2022-08-19T06:04:17;22.20;99.90
9849;DHT22;4963;51.444;6.528;2022-08-19T06:06:45;22.30;99.90
9849;DHT22;4963;51.444;6.528;2022-08-19T06:09:12;22.50;99.90
9849;DHT22;4963;51.444;6.528;2022-08-19T06:11:42;22.60;99.90
9849;DHT22;4963;51.444;6.528;2022-08-19T06:14:12;22.60;99.90
9849;DHT22;4963;51.444;6.528;2022-08-19T06:16:41;22.70;99.90
9849;DHT22;4963;51.444;6.528;2022-08-19T06:19:10;22.80;99.90
9849;DHT22;4963;51.444;6.528;2022-08-19T06:21:39;22.90;99.90
9849;DHT22;4963;51.444;6.528;2022-08-19T06:24:08;22.90;99.90
9849;DHT22;4963;51.444;6.528;2022-08-19T06:26:37;22.90;99.90
9849;DHT22;4963;51.444;6.528;2022-08-19T06:29:07;23.00;99.90
9849;DHT22;4963;51.444;6.528;2022-08-19T06:31:35;23.00;99.90
9849;DHT22;4963;51.444;6.528;2022-08-19T06:34:04;23.00;99.90
9849;DHT22;4963;51.444;6.528;2022-08-19T06:36:33;23.00;99.90
9849;DHT22;4963;51.444;6.528;2022-08-19T06:39:01;22.90;99.90
9849;DHT22;4963;51.444;6.528;2022-08-19T06:41:29;22.90;99.90
9849;DHT22;4963;51.444;6.528;2022-08-19T06:43:57;22.80;99.90
9849;DHT22;4963;51.444;6.528;2022-08-19T06:46:25;22.80;99.90
9849;DHT22;4963;51.444;6.528;2022-08-19T06:48:53;22.90;99.90
9849;DHT22;4963;51.444;6.528;2022-08-19T06:51:21;22.90;99.90
9849;DHT22;4963;51.444;6.528;2022-08-19T06:53:51;23.00;99.90
9849;DHT22;4963;51.444;6.528;2022-08-19T06:56:20;23.10;99.90
9849;DHT22;4963;51.444;6.528;2022-08-19T06:58:47;23.20;99.90
9849;DHT22;4963;51.444;6.528;2022-08-19T07:01:19;23.30;99.90
9849;DHT22;4963;51.444;6.528;2022-08-19T07:03:47;23.50;99.90
9849;DHT22;4963;51.444;6.528;2022-08-19T07:06:16;23.80;99.90
9849;DHT22;4963;51.444;6.528;2022-08-19T07:08:46;24.00;99.90
9849;DHT22;4963;51.444;6.528;2022-08-19T07:11:16;24.30;99.90
9849;DHT22;4963;51.444;6.528;2022-08-19T07:13:45;24.60;99.90
9849;DHT22;4963;51.444;6.528;2022-08-19T07:16:16;24.90;99.90
9849;DHT22;4963;51.444;6.528;2022-08-19T07:18:44;25.30;99.90
9849;DHT22;4963;51.444;6.528;2022-08-19T07:21:15;25.50;99.90
9849;DHT22;4963;51.444;6.528;2022-08-19T07:23:43;25.80;99.90
9849;DHT22;4963;51.444;6.528;2022-08-19T07:26:13;26.00;99.90
9849;DHT22;4963;51.444;6.528;2022-08-19T07:28:41;26.20;99.90
9849;DHT22;4963;51.444;6.528;2022-08-19T07:31:10;26.20;99.90
9849;DHT22;4963;51.444;6.528;2022-08-19T07:33:38;26.20;99.90
9849;DHT22;4963;51.444;6.528;2022-08-19T07:36:06;26.20;99.90
9849;DHT22;4963;51.444;6.528;2022-08-19T07:38:38;26.10;99.90
9849;DHT22;4963;51.444;6.528;2022-08-19T07:41:06;26.20;99.90
9849;DHT22;4963;51.444;6.528;2022-08-19T07:43:33;26.40;99.90
9849;DHT22;4963;51.444;6.528;2022-08-19T07:46:00;26.50;99.90
9849;DHT22;4963;51.444;6.528;2022-08-19T07:48:27;26.70;99.90
9849;DHT22;4963;51.444;6.528;2022-08-19T07:50:56;26.90;99.90
9849;DHT22;4963;51.444;6.528;2022-08-19T07:53:25;26.90;99.90
9849;DHT22;4963;51.444;6.528;2022-08-19T07:55:53;26.90;99.90
9849;DHT22;4963;51.444;6.528;2022-08-19T07:58:22;26.80;99.90
9849;DHT22;4963;51.444;6.528;2022-08-19T08:00:50;26.70;99.90
9849;DHT22;4963;51.444;6.528;2022-08-19T08:03:19;26.60;99.90
9849;DHT22;4963;51.444;6.528;2022-08-19T08:06:06;26.40;99.90
9849;DHT22;4963;51.444;6.528;2022-08-19T08:08:51;26.20;99.90
9849;DHT22;4963;51.444;6.528;2022-08-19T08:11:37;26.20;99.90
9849;DHT22;4963;51.444;6.528;2022-08-19T08:14:04;26.20;99.90
9849;DHT22;4963;51.444;6.528;2022-08-19T08:16:33;26.20;99.90
9849;DHT22;4963;51.444;6.528;2022-08-19T08:19:00;26.30;99.90
9849;DHT22;4963;51.444;6.528;2022-08-19T08:21:27;26.40;99.90
9849;DHT22;4963;51.444;6.528;2022-08-19T08:23:54;26.40;99.90
9849;DHT22;4963;51.444;6.528;2022-08-19T08:26:21;26.50;99.90
9849;DHT22;4963;51.444;6.528;2022-08-19T08:28:50;26.50;99.90
9849;DHT22;4963;51.444;6.528;2022-08-19T08:31:17;26.60;99.90
9849;DHT22;4963;51.444;6.528;2022-08-19T08:33:45;26.70;99.90
9849;DHT22;4963;51.444;6.528;2022-08-19T08:36:13;26.90;99.90
9849;DHT22;4963;51.444;6.528;2022-08-19T08:38:40;26.90;99.90
9849;DHT22;4963;51.444;6.528;2022-08-19T08:41:16;27.10;99.90
9849;DHT22;4963;51.444;6.528;2022-08-19T08:43:47;27.30;99.70
9849;DHT22;4963;51.444;6.528;2022-08-19T08:46:21;27.30;99.50
9849;DHT22;4963;51.444;6.528;2022-08-19T08:48:54;27.50;99.10
9849;DHT22;4963;51.444;6.528;2022-08-19T08:51:25;27.50;97.60
9849;DHT22;4963;51.444;6.528;2022-08-19T08:53:54;27.50;97.80
9849;DHT22;4963;51.444;6.528;2022-08-19T08:56:21;27.50;97.80
9849;DHT22;4963;51.444;6.528;2022-08-19T08:59:00;27.50;98.10
9849;DHT22;4963;51.444;6.528;2022-08-19T09:01:32;27.40;98.40
9849;DHT22;4963;51.444;6.528;2022-08-19T09:03:59;27.40;98.40
9849;DHT22;4963;51.444;6.528;2022-08-19T09:06:34;27.40;98.50
9849;DHT22;4963;51.444;6.528;2022-08-19T09:09:09;27.40;98.60
9849;DHT22;4963;51.444;6.528;2022-08-19T09:11:50;27.40;97.80
9849;DHT22;4963;51.444;6.528;2022-08-19T09:14:34;27.50;97.60
9849;DHT22;4963;51.444;6.528;2022-08-19T09:17:03;27.50;97.40
9849;DHT22;4963;51.444;6.528;2022-08-19T09:19:34;27.50;96.70
9849;DHT22;4963;51.444;6.528;2022-08-19T09:22:01;27.50;96.60
9849;DHT22;4963;51.444;6.528;2022-08-19T09:24:28;27.50;97.00
9849;DHT22;4963;51.444;6.528;2022-08-19T09:26:55;27.50;97.00
9849;DHT22;4963;51.444;6.528;2022-08-19T09:29:21;27.50;97.10
9849;DHT22;4963;51.444;6.528;2022-08-19T09:31:48;27.50;97.30
9849;DHT22;4963;51.444;6.528;2022-08-19T09:34:17;27.50;97.10
9849;DHT22;4963;51.444;6.528;2022-08-19T09:36:45;27.50;97.50
9849;DHT22;4963;51.444;6.528;2022-08-19T09:39:12;27.50;97.30
9849;DHT22;4963;51.444;6.528;2022-08-19T09:41:39;27.40;96.70
9849;DHT22;4963;51.444;6.528;2022-08-19T09:44:05;27.40;96.90
9849;DHT22;4963;51.444;6.528;2022-08-19T09:46:32;27.40;97.00
9849;DHT22;4963;51.444;6.528;2022-08-19T09:49:00;27.40;96.50
9849;DHT22;4963;51.444;6.528;2022-08-19T09:51:28;27.30;96.30
9849;DHT22;4963;51.444;6.528;2022-08-19T09:53:59;27.30;96.20
9849;DHT22;4963;51.444;6.528;2022-08-19T09:56:27;27.30;96.40
9849;DHT22;4963;51.444;6.528;2022-08-19T09:58:53;27.30;96.60
9849;DHT22;4963;51.444;6.528;2022-08-19T10:01:22;27.30;96.50
9849;DHT22;4963;51.444;6.528;2022-08-19T10:03:51;27.40;96.00
9849;DHT22;4963;51.444;6.528;2022-08-19T10:06:20;27.30;96.00
9849;DHT22;4963;51.444;6.528;2022-08-19T10:08:49;27.30;95.90
9849;DHT22;4963;51.444;6.528;2022-08-19T10:11:18;27.30;95.70
9849;DHT22;4963;51.444;6.528;2022-08-19T10:13:46;27.40;96.00
9849;DHT22;4963;51.444;6.528;2022-08-19T10:16:16;27.40;95.50
9849;DHT22;4963;51.444;6.528;2022-08-19T10:18:45;27.40;95.30
9849;DHT22;4963;51.444;6.528;2022-08-19T10:21:14;27.30;95.40
9849;DHT22;4963;51.444;6.528;2022-08-19T10:23:43;27.30;95.50
9849;DHT22;4963;51.444;6.528;2022-08-19T10:26:14;27.20;95.70
9849;DHT22;4963;51.444;6.528;2022-08-19T10:28:41;27.10;96.00
9849;DHT22;4963;51.444;6.528;2022-08-19T10:31:10;27.10;95.90
9849;DHT22;4963;51.444;6.528;2022-08-19T10:33:38;27.10;96.10
9849;DHT22;4963;51.444;6.528;2022-08-19T10:36:07;27.20;96.50
9849;DHT22;4963;51.444;6.528;2022-08-19T10:38:35;27.30;96.50
9849;DHT22;4963;51.444;6.528;2022-08-19T10:41:10;27.40;96.40
9849;DHT22;4963;51.444;6.528;2022-08-19T10:43:39;27.60;96.50
9849;DHT22;4963;51.444;6.528;2022-08-19T10:46:06;27.60;95.80
9849;DHT22;4963;51.444;6.528;2022-08-19T10:48:33;27.50;95.90
9849;DHT22;4963;51.444;6.528;2022-08-19T10:51:01;27.30;95.80
9849;DHT22;4963;51.444;6.528;2022-08-19T10:53:45;27.30;96.00
9849;DHT22;4963;51.444;6.528;2022-08-19T10:56:12;27.30;95.70
9849;DHT22;4963;51.444;6.528;2022-08-19T10:58:58;27.30;95.50
9849;DHT22;4963;51.444;6.528;2022-08-19T11:01:26;27.40;95.30
9849;DHT22;4963;51.444;6.528;2022-08-19T11:03:55;27.50;95.10
9849;DHT22;4963;51.444;6.528;2022-08-19T11:06:23;27.60;94.80
9849;DHT22;4963;51.444;6.528;2022-08-19T11:08:50;27.70;95.00
9849;DHT22;4963;51.444;6.528;2022-08-19T11:11:17;27.90;94.10
9849;DHT22;4963;51.444;6.528;2022-08-19T11:13:44;27.90;94.10
9849;DHT22;4963;51.444;6.528;2022-08-19T11:16:15;27.90;94.10
9849;DHT22;4963;51.444;6.528;2022-08-19T11:18:44;27.70;94.30
9849;DHT22;4963;51.444;6.528;2022-08-19T11:21:14;27.60;93.90
9849;DHT22;4963;51.444;6.528;2022-08-19T11:23:43;27.50;93.90
9849;DHT22;4963;51.444;6.528;2022-08-19T11:26:11;27.50;94.10
9849;DHT22;4963;51.444;6.528;2022-08-19T11:28:38;27.50;94.50
9849;DHT22;4963;51.444;6.528;2022-08-19T11:31:10;27.60;94.00
9849;DHT22;4963;51.444;6.528;2022-08-19T11:33:38;27.70;94.00
9849;DHT22;4963;51.444;6.528;2022-08-19T11:36:06;27.90;94.00
9849;DHT22;4963;51.444;6.528;2022-08-19T11:38:33;28.00;93.50
9849;DHT22;4963;51.444;6.528;2022-08-19T11:41:03;28.00;93.30
9849;DHT22;4963;51.444;6.528;2022-08-19T11:43:30;28.00;92.80
9849;DHT22;4963;51.444;6.528;2022-08-19T11:45:57;28.00;92.80
9849;DHT22;4963;51.444;6.528;2022-08-19T11:48:25;28.10;92.90
9849;DHT22;4963;51.444;6.528;2022-08-19T11:50:53;28.20;92.50
9849;DHT22;4963;51.444;6.528;2022-08-19T11:53:21;28.20;92.30
9849;DHT22;4963;51.444;6.528;2022-08-19T11:55:49;28.20;92.10
9849;DHT22;4963;51.444;6.528;2022-08-19T11:58:17;28.20;92.30
9849;DHT22;4963;51.444;6.528;2022-08-19T12:00:44;28.20;91.20
9849;DHT22;4963;51.444;6.528;2022-08-19T12:03:12;28.20;90.80
9849;DHT22;4963;51.444;6.528;2022-08-19T12:05:40;28.20;91.10
9849;DHT22;4963;51.444;6.528;2022-08-19T12:08:09;28.20;91.30
9849;DHT22;4963;51.444;6.528;2022-08-19T12:10:38;28.30;91.30
9849;DHT22;4963;51.444;6.528;2022-08-19T12:13:06;28.30;91.20
9849;DHT22;4963;51.444;6.528;2022-08-19T12:15:35;28.40;90.60
9849;DHT22;4963;51.444;6.528;2022-08-19T12:18:03;28.30;91.00
9849;DHT22;4963;51.444;6.528;2022-08-19T12:20:32;28.30;90.90
9849;DHT22;4963;51.444;6.528;2022-08-19T12:23:00;28.40;90.80
9849;DHT22;4963;51.444;6.528;2022-08-19T12:25:28;28.30;90.50
9849;DHT22;4963;51.444;6.528;2022-08-19T12:27:56;28.30;91.00
9849;DHT22;4963;51.444;6.528;2022-08-19T12:30:23;28.30;90.90
9849;DHT22;4963;51.444;6.528;2022-08-19T12:32:50;28.30;91.10
9849;DHT22;4963;51.444;6.528;2022-08-19T12:35:18;28.40;90.90
9849;DHT22;4963;51.444;6.528;2022-08-19T12:37:48;28.30;90.00
9849;DHT22;4963;51.444;6.528;2022-08-19T12:40:16;28.30;90.40
9849;DHT22;4963;51.444;6.528;2022-08-19T12:42:45;28.30;90.60
9849;DHT22;4963;51.444;6.528;2022-08-19T12:45:14;28.30;90.70
9849;DHT22;4963;51.444;6.528;2022-08-19T12:47:41;28.40;90.50
9849;DHT22;4963;51.444;6.528;2022-08-19T12:50:08;28.50;90.40
9849;DHT22;4963;51.444;6.528;2022-08-19T12:52:36;28.50;90.00
9849;DHT22;4963;51.444;6.528;2022-08-19T12:55:04;28.50;90.20
9849;DHT22;4963;51.444;6.528;2022-08-19T12:57:32;28.50;90.40
9849;DHT22;4963;51.444;6.528;2022-08-19T13:00:05;28.50;90.20
9849;DHT22;4963;51.444;6.528;2022-08-19T13:02:33;28.50;90.00
9849;DHT22;4963;51.444;6.528;2022-08-19T13:05:01;28.40;90.00
9849;DHT22;4963;51.444;6.528;2022-08-19T13:07:28;28.40;89.70
9849;DHT22;4963;51.444;6.528;2022-08-19T13:09:56;28.30;89.40
9849;DHT22;4963;51.444;6.528;2022-08-19T13:12:23;28.20;90.40
9849;DHT22;4963;51.444;6.528;2022-08-19T13:14:52;28.20;90.30
9849;DHT22;4963;51.444;6.528;2022-08-19T13:17:20;28.30;90.10
9849;DHT22;4963;51.444;6.528;2022-08-19T13:19:47;28.40;90.30
9849;DHT22;4963;51.444;6.528;2022-08-19T13:22:15;28.50;89.90
9849;DHT22;4963;51.444;6.528;2022-08-19T13:24:42;28.50;89.90
9849;DHT22;4963;51.444;6.528;2022-08-19T13:27:09;28.60;90.20
9849;DHT22;4963;51.444;6.528;2022-08-19T13:29:36;28.60;90.40
9849;DHT22;4963;51.444;6.528;2022-08-19T13:32:22;28.70;90.70
9849;DHT22;4963;51.444;6.528;2022-08-19T13:35:06;28.80;90.60
9849;DHT22;4963;51.444;6.528;2022-08-19T13:37:33;28.90;90.50
9849;DHT22;4963;51.444;6.528;2022-08-19T13:40:12;28.80;90.70
9849;DHT22;4963;51.444;6.528;2022-08-19T13:42:42;28.70;90.80
9849;DHT22;4963;51.444;6.528;2022-08-19T13:45:09;28.70;91.00
9849;DHT22;4963;51.444;6.528;2022-08-19T13:47:38;28.70;91.00
9849;DHT22;4963;51.444;6.528;2022-08-19T13:50:10;28.70;91.10
9849;DHT22;4963;51.444;6.528;2022-08-19T13:52:37;28.70;90.90
9849;DHT22;4963;51.444;6.528;2022-08-19T13:55:05;28.70;90.70
9849;DHT22;4963;51.444;6.528;2022-08-19T13:57:33;28.60;90.70
9849;DHT22;4963;51.444;6.528;2022-08-19T14:00:00;28.60;90.40
9849;DHT22;4963;51.444;6.528;2022-08-19T14:02:27;28.50;90.10
9849;DHT22;4963;51.444;6.528;2022-08-19T14:04:55;28.60;90.20
9849;DHT22;4963;51.444;6.528;2022-08-19T14:07:23;28.60;90.30
9849;DHT22;4963;51.444;6.528;2022-08-19T14:09:50;28.60;89.70
9849;DHT22;4963;51.444;6.528;2022-08-19T14:12:19;28.50;89.00
9849;DHT22;4963;51.444;6.528;2022-08-19T14:14:46;28.40;89.00
9849;DHT22;4963;51.444;6.528;2022-08-19T14:17:13;28.30;88.40
9849;DHT22;4963;51.444;6.528;2022-08-19T14:19:40;28.20;87.60
9849;DHT22;4963;51.444;6.528;2022-08-19T14:22:08;28.20;87.10
9849;DHT22;4963;51.444;6.528;2022-08-19T14:24:37;28.20;87.20
9849;DHT22;4963;51.444;6.528;2022-08-19T14:27:05;28.20;87.20
9849;DHT22;4963;51.444;6.528;2022-08-19T14:29:32;28.20;88.20
9849;DHT22;4963;51.444;6.528;2022-08-19T14:31:58;28.20;88.10
9849;DHT22;4963;51.444;6.528;2022-08-19T14:34:26;28.20;87.80
9849;DHT22;4963;51.444;6.528;2022-08-19T14:36:53;28.20;88.80
9849;DHT22;4963;51.444;6.528;2022-08-19T14:39:21;28.20;88.40
9849;DHT22;4963;51.444;6.528;2022-08-19T14:41:48;28.20;89.00
9849;DHT22;4963;51.444;6.528;2022-08-19T14:44:15;28.20;88.20
9849;DHT22;4963;51.444;6.528;2022-08-19T14:46:42;28.20;87.40
9849;DHT22;4963;51.444;6.528;2022-08-19T14:49:09;28.20;88.20
9849;DHT22;4963;51.444;6.528;2022-08-19T14:51:36;28.30;87.90
9849;DHT22;4963;51.444;6.528;2022-08-19T14:54:04;28.30;87.50
9849;DHT22;4963;51.444;6.528;2022-08-19T14:56:32;28.30;87.80
9849;DHT22;4963;51.444;6.528;2022-08-19T14:58:59;28.20;87.50
9849;DHT22;4963;51.444;6.528;2022-08-19T15:01:27;28.20;87.10
9849;DHT22;4963;51.444;6.528;2022-08-19T15:03:54;28.20;87.90
9849;DHT22;4963;51.444;6.528;2022-08-19T15:06:21;28.20;87.60
9849;DHT22;4963;51.444;6.528;2022-08-19T15:08:49;28.10;89.00
9849;DHT22;4963;51.444;6.528;2022-08-19T15:11:18;28.10;89.80
9849;DHT22;4963;51.444;6.528;2022-08-19T15:13:48;28.00;89.70
9849;DHT22;4963;51.444;6.528;2022-08-19T15:16:16;28.00;90.00
9849;DHT22;4963;51.444;6.528;2022-08-19T15:18:43;28.00;89.10
9849;DHT22;4963;51.444;6.528;2022-08-19T15:21:12;28.00;88.20
9849;DHT22;4963;51.444;6.528;2022-08-19T15:23:39;27.90;88.60
9849;DHT22;4963;51.444;6.528;2022-08-19T15:26:07;27.80;90.00
9849;DHT22;4963;51.444;6.528;2022-08-19T15:28:36;27.70;90.20
9849;DHT22;4963;51.444;6.528;2022-08-19T15:31:05;27.60;90.10
9849;DHT22;4963;51.444;6.528;2022-08-19T15:33:32;27.60;90.10
9849;DHT22;4963;51.444;6.528;2022-08-19T15:36:02;27.60;90.40
9849;DHT22;4963;51.444;6.528;2022-08-19T15:38:30;27.60;90.80
9849;DHT22;4963;51.444;6.528;2022-08-19T15:40:59;27.60;91.10
9849;DHT22;4963;51.444;6.528;2022-08-19T15:43:47;27.60;91.40
9849;DHT22;4963;51.444;6.528;2022-08-19T15:46:18;27.60;90.90
9849;DHT22;4963;51.444;6.528;2022-08-19T15:48:46;27.60;91.20
9849;DHT22;4963;51.444;6.528;2022-08-19T15:51:13;27.60;91.40
9849;DHT22;4963;51.444;6.528;2022-08-19T15:53:40;27.60;91.30
9849;DHT22;4963;51.444;6.528;2022-08-19T15:56:08;27.60;91.50
9849;DHT22;4963;51.444;6.528;2022-08-19T15:58:35;27.60;92.10
9849;DHT22;4963;51.444;6.528;2022-08-19T16:01:21;27.60;92.00
9849;DHT22;4963;51.444;6.528;2022-08-19T16:04:07;27.50;92.30
9849;DHT22;4963;51.444;6.528;2022-08-19T16:06:53;27.50;92.50
9849;DHT22;4963;51.444;6.528;2022-08-19T16:09:22;27.50;92.50
9849;DHT22;4963;51.444;6.528;2022-08-19T16:11:49;27.50;92.80
9849;DHT22;4963;51.444;6.528;2022-08-19T16:14:18;27.40;92.90